< < Back
Terminal Aerodrome Forecast


Current Version              Previous Versions:   1  2  3  4  5  6  7  8  9  

Terminal Aerodrome Forecast

232
FTUS44 KMOB 312300
TAFPNS
TAF
KPNS 312320Z 0100/0124 14007KT P6SM SKC
     FM011500 16012KT P6SM VCSH BKN050 OVC150
     FM011800 18014KT 4SM BR VCSH BKN020 PROB30 0118/0124 2SM SHRA
      BR BKN015=

Latest METAR

340
SAUS70 KWBC 010700 RRX
MTRPNS
METAR KPNS 010653Z AUTO 09004KT 10SM SCT023 09/06 A3017 RMK AO2 SLP220
T00890061


USA.gov is the U.S. government's official web portal to all federal, state and local government web resources and services.